Language selection

Weather shortcuts

Juan de Fuca Strait - central strait: Past 24 Hour Conditions

 

Sentry Shoal - 46131

11:00 AM PDT 19 May 2024Buoy position: 49.92N 125.0W
Disclaimer

This table is a summary of hourly weather conditions for the past 24 hours.
Please note that these observations might not always be representative of weather conditions over their associated marine area.

Date / Time
(PDT)
Wind(knots) Wave height(m) Wave period(s) Pressure(kPa) Air tempC) Water tempC)
19 May 2024
11:00 NNW 8 gusts 10 0.10 1.9 102.5 11 11
10:00 NW 8 gusts 9 0.14 2.1 102.4 11 11
9:00 WNW 8 gusts 10 0.23 2.2 102.4 10 11
8:00 W 13 gusts 15 0.33 2.5 102.4 10 10
7:00 WSW 13 gusts 16 0.34 2.6 102.3 9 10
6:00 S 14 gusts 17 0.40 2.5 102.2 9 10
5:00 WSW 14 gusts 17 0.31 2.5 102.1 10 10
4:00 W 13 gusts 16 0.31 2.6 102.1 10 10
3:00 W 14 gusts 15 0.32 2.7 102.1 10 11
2:00 WNW 12 gusts 16 0.31 3.1 102.0 10 10
1:00 N 13 gusts 16 0.31 2.5 102.0 11 11
0:00 WNW 13 gusts 17 0.38 2.9 102.0 11 11
18 May 2024
23:00 WNW 13 gusts 16 0.34 3.0 101.9 11 12
22:00 WNW 16 gusts 19 0.38 3.1 101.9 12 12
21:00 W 13 gusts 16 0.39 2.7 101.8 12 12
20:00 NNW 13 gusts 17 0.09 2.4 101.7 13 13
19:00 SSW 4 gusts 6 0.05 2.5 101.7 14 13
18:00 S 5 gusts 6 0.06 1.8 101.7 13 13
17:00 SSE 8 gusts 9 0.07 4.0 101.7 12 12
16:00 S 8 gusts 9 0.12 4.0 101.7 12 12
15:00 SSE 9 gusts 10 0.11 2.5 101.7 12 11
14:00 SSE 8 gusts 9 0.10 2.4 101.8 11 11
13:00 SSW 4 gusts 5 0.16 2.4 101.8 11 11
12:00 WNW 3 gusts 5 0.24 2.9 101.8 11 11
11:00 NW 9 gusts 12 0.19 2.4 101.8 10 11

Zoom-in to make a selection

Map of Pacific - Georgia Basin marine weather areas Sentry Shoal - 46131 Halibut Bank - 46146 La Perouse Bank - 46206 Georgia Strait - 46303 English Bay – 46304 Discovery Island Esquimalt Harbour Kelp Reefs Malahat Race Rocks Lightstation Saturna Island Sheringham Point University of Victoria Victoria Gonzales Victoria Int'l Airport Ballenas Islands Campbell River Airport Comox Airport Entrance Island Fanny Island Nanaimo Airport Sisters Islets Estevan Point Port Alberni Tofino Airport Grief Point Howe Sound - Pam Rocks Powell River Airport Sechelt Squamish Airport Point Atkinson Sand Heads Lightstation Tsawwassen Ferry Terminal Vancouver Int'l Airport Vancouver Harbour West Vancouver
Legend:
buoy Buoy
land station Land Station

Pacific - Georgia Basin Area

Another Region

Date modified: